Time;durP1;ratioP1;P1;durP2;ratioP2;P2;SDS_P1;SDS_P2;PMS_P1;PMS_P2;Temp;Humidity;BMP_temperature;BMP_pressure;BME280_temperature;BME280_humidity;BME280_pressure;Samples;Min_cycle;Max_cycle;Signal;HPM_P1;HPM_P2
2020/12/25 00:02:08;;;;;;;5.30;3.23;;;5.50;99.90;;;;;;4996595;28;20553;-92
2020/12/25 00:04:35;;;;;;;5.20;4.23;;;5.60;99.90;;;;;;4996808;28;20489;-91
2020/12/25 00:07:02;;;;;;;5.13;3.30;;;5.60;99.90;;;;;;4996382;28;20476;-90
2020/12/25 00:09:28;;;;;;;4.77;3.40;;;5.60;99.90;;;;;;4996887;28;20461;-90
2020/12/25 00:11:55;;;;;;;5.73;3.57;;;5.60;99.90;;;;;;4995666;28;20495;-90
2020/12/25 00:14:23;;;;;;;4.97;3.87;;;5.60;99.90;;;;;;4997487;28;20461;-90
2020/12/25 00:16:49;;;;;;;7.87;3.83;;;5.60;99.90;;;;;;4992731;28;20622;-89
2020/12/25 00:19:16;;;;;;;4.20;3.20;;;5.60;99.90;;;;;;4994303;28;20935;-90
2020/12/25 00:21:42;;;;;;;4.93;3.70;;;5.60;99.90;;;;;;4996441;28;20572;-90
2020/12/25 00:24:09;;;;;;;10.00;4.93;;;5.60;99.90;;;;;;4994700;28;20542;-89
2020/12/25 00:26:35;;;;;;;10.63;4.43;;;5.60;99.90;;;;;;4997223;28;20466;-89
2020/12/25 00:29:03;;;;;;;7.80;4.47;;;5.50;99.90;;;;;;4996047;28;20446;-91
2020/12/25 00:31:33;;;;;;;6.10;3.90;;;5.40;99.90;;;;;;4996541;28;20464;-91
2020/12/25 00:34:01;;;;;;;8.47;3.97;;;5.40;99.90;;;;;;4996466;28;21002;-90
2020/12/25 00:36:29;;;;;;;6.07;3.83;;;5.30;99.90;;;;;;4996843;28;20472;-92
2020/12/25 00:38:57;;;;;;;6.63;4.20;;;5.30;99.90;;;;;;4991858;28;20521;-91
2020/12/25 00:41:24;;;;;;;10.00;4.07;;;5.20;99.90;;;;;;4988400;28;20483;-89
2020/12/25 00:43:51;;;;;;;7.80;4.07;;;5.10;99.90;;;;;;4996650;28;20458;-90
2020/12/25 00:46:18;;;;;;;6.10;3.40;;;5.00;99.90;;;;;;4995627;28;20975;-90
2020/12/25 00:48:45;;;;;;;8.13;4.43;;;5.00;99.90;;;;;;4995509;28;20458;-90
2020/12/25 00:51:13;;;;;;;8.53;3.97;;;4.90;99.90;;;;;;4995547;28;20541;-90
2020/12/25 00:53:40;;;;;;;6.57;4.47;;;4.90;99.90;;;;;;4996182;28;20455;-91
2020/12/25 00:56:06;;;;;;;5.87;3.50;;;4.90;99.90;;;;;;4992040;28;20486;-90
2020/12/25 00:58:33;;;;;;;6.80;4.37;;;4.80;99.90;;;;;;4992219;28;20787;-90
2020/12/25 01:00:59;;;;;;;6.87;3.23;;;4.80;99.90;;;;;;4992920;28;20582;-90
2020/12/25 01:03:25;;;;;;;7.90;4.03;;;4.90;99.90;;;;;;4996918;28;20935;-90
2020/12/25 01:05:53;;;;;;;7.30;3.47;;;4.80;99.90;;;;;;4996001;28;20491;-90
2020/12/25 01:08:19;;;;;;;10.33;4.20;;;4.80;99.90;;;;;;4995595;28;20485;-89
2020/12/25 01:10:46;;;;;;;6.23;4.00;;;4.70;99.90;;;;;;5001069;28;20446;-91
2020/12/25 01:13:12;;;;;;;7.23;3.93;;;4.60;99.90;;;;;;4996467;28;20499;-90
2020/12/25 01:15:39;;;;;;;6.37;3.63;;;4.60;99.90;;;;;;4996149;28;20531;-89
2020/12/25 01:18:07;;;;;;;8.00;3.47;;;4.60;99.90;;;;;;4994435;28;20851;-91
2020/12/25 01:20:34;;;;;;;8.93;3.57;;;4.50;99.90;;;;;;4995475;28;20485;-91
2020/12/25 01:23:01;;;;;;;8.80;4.13;;;4.50;99.90;;;;;;4995412;28;20465;-90
2020/12/25 01:25:28;;;;;;;8.30;4.00;;;4.50;99.90;;;;;;4995499;28;20556;-89
2020/12/25 01:27:54;;;;;;;6.00;3.53;;;4.50;99.90;;;;;;4996357;28;20468;-90
2020/12/25 01:30:21;;;;;;;5.30;3.10;;;4.50;99.90;;;;;;4996158;28;20446;-89
2020/12/25 01:32:48;;;;;;;5.50;3.50;;;4.50;99.90;;;;;;4992029;28;21008;-91
2020/12/25 01:35:14;;;;;;;8.73;3.50;;;4.50;99.90;;;;;;4994389;28;20559;-90
2020/12/25 01:37:41;;;;;;;11.40;3.40;;;4.40;99.90;;;;;;4996973;28;20451;-91
2020/12/25 01:40:08;;;;;;;9.23;3.20;;;4.30;99.90;;;;;;4995974;28;20473;-90
2020/12/25 01:42:35;;;;;;;4.70;2.40;;;4.30;99.90;;;;;;4995079;28;20487;-90
2020/12/25 01:45:02;;;;;;;5.70;2.90;;;4.30;99.90;;;;;;4997464;28;20484;-92
2020/12/25 01:47:29;;;;;;;5.37;2.77;;;4.40;99.90;;;;;;4998467;28;20916;-90
2020/12/25 01:49:56;;;;;;;6.77;3.57;;;4.30;99.90;;;;;;5011478;28;20476;-89
2020/12/25 01:52:24;;;;;;;8.93;3.20;;;4.40;99.90;;;;;;5005119;28;20447;-90
2020/12/25 01:54:51;;;;;;;8.23;2.73;;;4.40;99.90;;;;;;4997061;28;20460;-91
2020/12/25 01:57:18;;;;;;;7.47;2.80;;;4.40;99.90;;;;;;4995217;28;20523;-90
2020/12/25 01:59:45;;;;;;;9.67;3.07;;;4.40;99.90;;;;;;4995868;28;20939;-90
2020/12/25 02:02:14;;;;;;;4.80;2.77;;;4.40;99.90;;;;;;4992603;28;20448;-91
2020/12/25 02:04:41;;;;;;;7.93;2.87;;;4.40;99.90;;;;;;4990514;28;20514;-91
2020/12/25 02:07:08;;;;;;;5.83;2.40;;;4.40;99.90;;;;;;4992726;28;20518;-91
2020/12/25 02:09:34;;;;;;;7.80;2.47;;;4.40;99.90;;;;;;4995497;28;20454;-92
2020/12/25 02:12:01;;;;;;;5.23;2.67;;;4.40;99.90;;;;;;4995594;28;20489;-94
2020/12/25 02:14:29;;;;;;;4.90;2.40;;;4.50;99.90;;;;;;4998162;28;20964;-91
2020/12/25 02:16:56;;;;;;;5.60;2.07;;;4.50;99.90;;;;;;4997550;28;20487;-92
2020/12/25 02:19:22;;;;;;;8.80;3.00;;;4.50;99.90;;;;;;4999088;28;20563;-91
2020/12/25 02:21:49;;;;;;;4.90;2.40;;;4.50;99.90;;;;;;5015193;28;20502;-90
2020/12/25 02:24:16;;;;;;;6.70;2.60;;;4.50;99.90;;;;;;5008127;28;20442;-91
2020/12/25 02:26:42;;;;;;;5.03;1.90;;;4.50;99.90;;;;;;5016855;28;20449;-91
2020/12/25 02:29:08;;;;;;;7.03;2.20;;;4.50;99.90;;;;;;5017020;28;20469;-91
2020/12/25 02:31:35;;;;;;;5.70;2.40;;;4.50;99.90;;;;;;5017479;28;20461;-91
2020/12/25 02:34:04;;;;;;;5.20;2.23;;;4.50;99.90;;;;;;5017548;28;20443;-90
2020/12/25 02:36:31;;;;;;;6.77;2.37;;;4.50;99.90;;;;;;5017336;28;20444;-90
2020/12/25 02:38:58;;;;;;;6.10;1.80;;;4.50;99.90;;;;;;5011471;28;20438;-90
2020/12/25 02:41:24;;;;;;;8.63;2.27;;;4.50;99.90;;;;;;5009079;28;20475;-90
2020/12/25 02:43:51;;;;;;;9.97;2.47;;;4.50;99.90;;;;;;5020465;28;20449;-90
2020/12/25 02:46:20;;;;;;;9.73;1.90;;;4.40;99.90;;;;;;5018057;28;20464;-89
2020/12/25 02:48:46;;;;;;;3.47;1.63;;;4.40;99.90;;;;;;4997380;28;20486;-90
2020/12/25 02:51:16;;;;;;;5.20;1.70;;;4.40;99.90;;;;;;4998962;28;20453;-90
2020/12/25 02:53:42;;;;;;;6.40;2.33;;;4.30;99.90;;;;;;4998867;28;20452;-90
2020/12/25 02:56:14;;;;;;;5.80;1.50;;;4.30;99.90;;;;;;4998666;28;20458;-90
2020/12/25 02:58:40;;;;;;;7.63;2.90;;;4.30;99.90;;;;;;4999183;28;20817;-90
2020/12/25 03:01:09;;;;;;;7.07;1.80;;;4.20;99.90;;;;;;4998211;28;20480;-91
2020/12/25 03:03:36;;;;;;;6.13;1.90;;;4.20;99.90;;;;;;4995939;28;20489;-90
2020/12/25 03:06:04;;;;;;;4.73;1.80;;;4.20;99.90;;;;;;4998394;28;20440;-91
2020/12/25 03:08:31;;;;;;;6.27;1.50;;;4.20;99.90;;;;;;4998931;28;20538;-91
2020/12/25 03:10:57;;;;;;;7.53;1.33;;;4.30;99.90;;;;;;4999212;28;20947;-91
2020/12/25 03:13:24;;;;;;;6.67;1.67;;;4.20;99.90;;;;;;4998800;28;20464;-91
2020/12/25 03:15:51;;;;;;;6.70;1.47;;;4.10;99.90;;;;;;4996017;28;20461;-91
2020/12/25 03:18:18;;;;;;;5.30;2.00;;;4.10;99.90;;;;;;4998195;28;20554;-91
2020/12/25 03:20:44;;;;;;;3.77;1.30;;;3.90;99.90;;;;;;4998024;28;20582;-91
2020/12/25 03:23:11;;;;;;;2.70;1.37;;;3.90;99.90;;;;;;4997613;28;20478;-91
2020/12/25 03:25:37;;;;;;;6.50;1.53;;;3.80;99.90;;;;;;4998098;28;20537;-91
2020/12/25 03:28:05;;;;;;;7.77;2.37;;;3.70;99.90;;;;;;4997770;28;20571;-91
2020/12/25 03:30:32;;;;;;;3.40;1.23;;;3.70;99.90;;;;;;4997491;28;20534;-90
2020/12/25 03:32:59;;;;;;;6.23;1.60;;;3.60;99.90;;;;;;4998004;28;20590;-90
2020/12/25 03:35:25;;;;;;;7.57;1.63;;;3.60;99.90;;;;;;4990214;28;20930;-90
2020/12/25 03:37:52;;;;;;;4.77;1.53;;;3.40;99.90;;;;;;4998161;28;20519;-90
2020/12/25 03:40:18;;;;;;;5.23;1.50;;;3.30;99.90;;;;;;4992655;28;20573;-90
2020/12/25 03:42:45;;;;;;;8.03;1.77;;;3.30;99.90;;;;;;4997539;28;20610;-91
2020/12/25 03:45:12;;;;;;;4.90;1.23;;;3.10;99.90;;;;;;4997106;28;20459;-90
2020/12/25 03:47:39;;;;;;;7.37;1.90;;;3.10;99.90;;;;;;4997649;28;20516;-91
2020/12/25 03:50:08;;;;;;;6.23;1.80;;;3.10;99.90;;;;;;4996681;28;20462;-91
2020/12/25 03:52:35;;;;;;;5.50;2.07;;;3.00;99.90;;;;;;4990899;28;20438;-90
2020/12/25 03:55:02;;;;;;;4.13;1.37;;;2.90;99.90;;;;;;4995686;28;20867;-90
2020/12/25 03:57:29;;;;;;;8.03;1.50;;;2.90;99.90;;;;;;4984330;28;20961;-90
2020/12/25 03:59:55;;;;;;;5.40;1.60;;;2.80;99.90;;;;;;4997610;28;20487;-91
2020/12/25 04:02:22;;;;;;;11.40;2.00;;;2.80;99.90;;;;;;4996620;28;20219;-90
2020/12/25 04:04:49;;;;;;;7.90;2.00;;;2.80;99.90;;;;;;4996915;28;20518;-90
2020/12/25 04:07:16;;;;;;;7.00;1.60;;;2.70;99.90;;;;;;5001997;28;20454;-90
2020/12/25 04:09:42;;;;;;;4.60;1.30;;;2.70;99.90;;;;;;5006504;28;20451;-92
2020/12/25 04:12:08;;;;;;;7.50;1.53;;;2.60;99.90;;;;;;4996793;28;20470;-91
2020/12/25 04:14:35;;;;;;;4.07;1.20;;;2.60;99.90;;;;;;4997337;28;20481;-90
2020/12/25 04:17:01;;;;;;;5.53;1.47;;;2.60;99.90;;;;;;4989049;28;21001;-91
2020/12/25 04:19:28;;;;;;;5.03;1.70;;;2.50;99.90;;;;;;4996679;28;20443;-91
2020/12/25 04:21:55;;;;;;;2.63;1.20;;;2.40;99.90;;;;;;4996854;28;20496;-90
2020/12/25 04:24:22;;;;;;;6.40;1.40;;;2.40;99.90;;;;;;4996263;28;20478;-90
2020/12/25 04:26:48;;;;;;;6.90;1.15;;;2.40;99.90;;;;;;4996266;28;20493;-91
2020/12/25 04:29:15;;;;;;;4.87;1.97;;;2.30;99.90;;;;;;4996270;28;20222;-90
2020/12/25 04:31:41;;;;;;;5.30;1.57;;;2.20;99.90;;;;;;4989073;28;20965;-91
2020/12/25 04:34:11;;;;;;;3.47;1.20;;;2.20;99.90;;;;;;4991012;28;20939;-92
2020/12/25 04:36:38;;;;;;;4.70;1.30;;;2.20;99.90;;;;;;4996710;28;20870;-90
2020/12/25 04:39:07;;;;;;;6.28;1.65;;;2.00;99.90;;;;;;4996328;28;20211;-91
2020/12/25 04:41:34;;;;;;;3.05;1.10;;;2.00;99.90;;;;;;5000984;28;20590;-91
2020/12/25 04:44:02;;;;;;;6.90;1.52;;;2.00;99.90;;;;;;4994643;28;20559;-91
2020/12/25 04:46:28;;;;;;;3.35;1.60;;;2.00;99.90;;;;;;4995560;28;20511;-91
2020/12/25 04:48:56;;;;;;;6.70;1.40;;;1.90;99.90;;;;;;4996096;28;20719;-91
2020/12/25 04:51:22;;;;;;;4.60;1.65;;;1.90;99.90;;;;;;4994610;28;20546;-91
2020/12/25 04:53:50;;;;;;;3.67;1.55;;;1.90;99.90;;;;;;4996301;28;20239;-91
2020/12/25 04:56:19;;;;;;;6.40;1.65;;;1.90;99.90;;;;;;4995438;28;20219;-90
2020/12/25 04:58:45;;;;;;;4.70;1.55;;;1.80;99.90;;;;;;4996280;28;20289;-91
2020/12/25 05:01:15;;;;;;;7.55;1.80;;;1.90;99.90;;;;;;4995284;28;20300;-90
2020/12/25 05:03:43;;;;;;;7.32;2.20;;;1.80;99.90;;;;;;4970954;28;20559;-91
2020/12/25 05:06:14;;;;;;;4.75;1.88;;;1.80;99.90;;;;;;4976285;28;20301;-93
2020/12/25 05:08:42;;;;;;;7.57;1.80;;;1.80;99.90;;;;;;4988481;28;20290;-88
2020/12/25 05:11:12;;;;;;;5.10;1.60;;;1.80;99.90;;;;;;4997870;28;20302;-89
2020/12/25 05:13:48;;;;;;;8.95;1.58;;;1.80;99.90;;;;;;4992673;28;20638;-89
2020/12/25 05:16:16;;;;;;;6.80;2.03;;;1.70;99.90;;;;;;4995623;28;20609;-90
2020/12/25 05:18:43;;;;;;;5.50;2.00;;;1.80;99.90;;;;;;4995322;28;20301;-89
2020/12/25 05:21:11;;;;;;;6.32;2.20;;;1.80;99.90;;;;;;4995354;28;20622;-92
2020/12/25 05:23:40;;;;;;;5.15;2.00;;;1.70;99.90;;;;;;4987909;28;20260;-89
2020/12/25 05:26:08;;;;;;;6.57;2.22;;;1.70;99.90;;;;;;4995652;28;20224;-89
2020/12/25 05:28:38;;;;;;;7.50;1.75;;;1.70;99.90;;;;;;4995315;28;20219;-88
2020/12/25 05:31:05;;;;;;;3.47;1.55;;;1.60;99.90;;;;;;4995526;28;20282;-89
2020/12/25 05:33:33;;;;;;;5.57;2.08;;;1.60;99.90;;;;;;4986655;28;20241;-89
2020/12/25 05:35:59;;;;;;;4.72;1.65;;;1.50;99.90;;;;;;4995524;28;20510;-89
2020/12/25 05:38:27;;;;;;;5.93;1.63;;;1.60;99.90;;;;;;4991787;28;20250;-88
2020/12/25 05:40:54;;;;;;;5.28;2.17;;;1.60;99.90;;;;;;4991601;28;20230;-90
2020/12/25 05:43:21;;;;;;;4.22;1.90;;;1.50;99.90;;;;;;4994936;28;20245;-90
2020/12/25 05:45:48;;;;;;;8.75;2.10;;;1.50;99.90;;;;;;4995296;28;20250;-90
2020/12/25 05:48:15;;;;;;;5.97;2.10;;;1.50;99.90;;;;;;4991516;28;20301;-89
2020/12/25 05:50:42;;;;;;;12.40;2.45;;;1.50;99.90;;;;;;4995669;28;20298;-88
2020/12/25 05:53:09;;;;;;;6.78;1.98;;;1.50;99.90;;;;;;4996124;28;20212;-89
2020/12/25 05:55:37;;;;;;;5.07;2.42;;;1.40;99.90;;;;;;4995158;28;20245;-89
2020/12/25 05:58:05;;;;;;;4.82;2.33;;;1.40;99.90;;;;;;4994494;28;20549;-89
2020/12/25 06:00:33;;;;;;;7.53;2.85;;;1.40;99.90;;;;;;4991851;28;20263;-88
2020/12/25 06:03:00;;;;;;;5.25;2.22;;;1.40;99.90;;;;;;4992362;28;20311;-88
2020/12/25 06:05:28;;;;;;;7.25;2.63;;;1.40;99.90;;;;;;4996913;28;20242;-89
2020/12/25 06:07:56;;;;;;;7.00;3.10;;;1.40;99.90;;;;;;4995021;28;20291;-89
2020/12/25 06:10:24;;;;;;;5.45;2.38;;;1.40;99.90;;;;;;4995398;28;20202;-89
2020/12/25 06:12:52;;;;;;;5.70;1.95;;;1.30;99.90;;;;;;4992447;28;20594;-89
2020/12/25 06:15:22;;;;;;;4.53;2.47;;;1.30;99.90;;;;;;4995938;28;20220;-90
2020/12/25 06:18:11;;;;;;;3.60;1.65;;;1.30;99.90;;;;;;4993648;28;20662;-90
2020/12/25 06:20:56;;;;;;;5.43;2.10;;;1.30;99.90;;;;;;4997573;28;20242;-89
2020/12/25 06:23:24;;;;;;;5.60;2.55;;;1.30;99.90;;;;;;5001169;28;20202;-87
2020/12/25 06:25:52;;;;;;;12.63;2.97;;;1.40;99.90;;;;;;5002863;28;20651;-84
2020/12/25 06:28:19;;;;;;;4.15;2.50;;;1.50;99.90;;;;;;5007108;28;20647;-87
2020/12/25 06:30:46;;;;;;;6.10;2.67;;;1.60;99.90;;;;;;4998933;28;20265;-89
2020/12/25 06:33:13;;;;;;;6.55;2.38;;;1.80;99.90;;;;;;4998801;28;20624;-89
2020/12/25 06:35:43;;;;;;;6.40;2.22;;;1.90;99.90;;;;;;4998630;28;20222;-88
2020/12/25 06:38:11;;;;;;;8.18;3.17;;;2.00;99.90;;;;;;4991656;28;20217;-88
2020/12/25 06:40:39;;;;;;;6.50;2.13;;;2.10;99.90;;;;;;4997235;28;20243;-89
2020/12/25 06:43:15;;;;;;;4.82;2.38;;;2.20;99.90;;;;;;4996627;28;20678;-90
2020/12/25 06:45:42;;;;;;;7.95;3.22;;;2.40;99.90;;;;;;4999516;28;20222;-89
2020/12/25 06:48:19;;;;;;;7.70;3.10;;;2.40;99.90;;;;;;4993477;28;20631;-90
2020/12/25 06:50:52;;;;;;;6.90;3.05;;;2.40;99.90;;;;;;4998530;28;20450;-88
2020/12/25 06:53:35;;;;;;;5.77;3.07;;;2.50;99.90;;;;;;4997905;28;20290;-88
2020/12/25 06:56:22;;;;;;;10.60;3.93;;;2.60;99.90;;;;;;4998212;28;20900;-89
2020/12/25 06:58:50;;;;;;;6.63;3.03;;;2.70;99.90;;;;;;4993237;28;20488;-89
2020/12/25 07:01:18;;;;;;;6.63;3.10;;;2.80;99.90;;;;;;4996315;28;20514;-89
2020/12/25 07:03:45;;;;;;;9.27;3.10;;;2.80;99.90;;;;;;4998365;28;20514;-89
2020/12/25 07:06:13;;;;;;;9.10;3.88;;;2.80;99.90;;;;;;4992398;28;20494;-88
2020/12/25 07:08:45;;;;;;;9.73;3.65;;;2.80;99.90;;;;;;4997941;28;20212;-89
2020/12/25 07:11:12;;;;;;;8.90;3.43;;;2.80;99.90;;;;;;4998239;28;20199;-88
2020/12/25 07:13:40;;;;;;;5.60;3.17;;;2.90;99.90;;;;;;5002159;28;20445;-90
2020/12/25 07:16:07;;;;;;;13.73;3.20;;;3.00;99.90;;;;;;4998122;28;20778;-90
2020/12/25 07:18:34;;;;;;;12.50;4.07;;;3.10;99.90;;;;;;4993699;28;20545;-89
2020/12/25 07:21:06;;;;;;;7.30;3.10;;;3.10;99.90;;;;;;4995045;28;20520;-89
2020/12/25 07:23:34;;;;;;;6.03;2.90;;;3.10;99.90;;;;;;4997449;28;20483;-88
2020/12/25 07:26:01;;;;;;;14.23;4.00;;;3.20;99.90;;;;;;5003118;28;20465;-86
2020/12/25 07:28:29;;;;;;;5.20;2.95;;;3.20;99.90;;;;;;4990860;28;20522;-89
2020/12/25 07:30:57;;;;;;;7.03;3.33;;;3.20;99.90;;;;;;4986353;28;20202;-86
2020/12/25 07:33:25;;;;;;;7.03;3.20;;;3.20;99.90;;;;;;4988843;28;20921;-88
2020/12/25 07:35:52;;;;;;;11.20;3.83;;;3.20;99.90;;;;;;4990998;28;20448;-86
2020/12/25 07:38:19;;;;;;;10.93;4.00;;;3.20;99.90;;;;;;4985607;28;20550;-86
2020/12/25 07:40:48;;;;;;;8.60;2.77;;;3.30;99.90;;;;;;4997805;28;20487;-90
2020/12/25 07:43:15;;;;;;;7.50;2.90;;;3.30;99.90;;;;;;4990467;28;20460;-89
2020/12/25 07:45:42;;;;;;;10.97;3.80;;;3.40;99.90;;;;;;4989869;28;20473;-89
2020/12/25 07:48:09;;;;;;;8.53;3.63;;;3.50;99.90;;;;;;4984718;28;20528;-89
2020/12/25 07:50:39;;;;;;;8.17;3.43;;;3.40;99.90;;;;;;4992450;28;20447;-89
2020/12/25 07:53:09;;;;;;;7.93;2.90;;;3.40;99.90;;;;;;4993216;28;20635;-89
2020/12/25 07:55:36;;;;;;;6.70;3.17;;;3.50;99.90;;;;;;5001707;28;20482;-88
2020/12/25 07:58:04;;;;;;;6.00;2.70;;;3.50;99.90;;;;;;4999764;28;20478;-89
2020/12/25 08:00:30;;;;;;;6.80;2.90;;;3.60;99.90;;;;;;4987149;28;20502;-89
2020/12/25 08:02:58;;;;;;;8.23;2.47;;;3.50;99.90;;;;;;4996088;28;20474;-89
2020/12/25 08:05:28;;;;;;;6.83;3.00;;;3.50;99.90;;;;;;4993967;28;20476;-89
2020/12/25 08:07:55;;;;;;;5.17;2.70;;;3.50;99.90;;;;;;4987336;28;20470;-88
2020/12/25 08:10:22;;;;;;;5.60;1.97;;;3.40;99.90;;;;;;4995523;28;20541;-90
2020/12/25 08:12:50;;;;;;;10.77;3.20;;;3.40;99.90;;;;;;4998343;28;20467;-89
2020/12/25 08:15:19;;;;;;;8.73;3.07;;;3.30;99.90;;;;;;4999262;28;20558;-89
2020/12/25 08:17:49;;;;;;;6.07;2.50;;;3.10;99.90;;;;;;4998525;28;20467;-89
2020/12/25 08:20:15;;;;;;;7.70;2.67;;;3.10;99.90;;;;;;4979083;28;20457;-89
2020/12/25 08:22:42;;;;;;;7.80;3.45;;;2.90;99.90;;;;;;4979508;28;20468;-89
2020/12/25 08:25:08;;;;;;;6.53;2.93;;;2.90;99.90;;;;;;4997564;28;20254;-89
2020/12/25 08:27:36;;;;;;;4.53;3.55;;;2.80;99.90;;;;;;4986429;28;20467;-89
2020/12/25 08:30:05;;;;;;;8.03;3.90;;;2.70;99.90;;;;;;4997277;28;20650;-89
2020/12/25 08:32:33;;;;;;;5.50;3.00;;;2.60;99.90;;;;;;4991432;28;20531;-89
2020/12/25 08:35:13;;;;;;;7.47;4.13;;;2.60;99.90;;;;;;4996479;28;20465;-88
2020/12/25 08:37:50;;;;;;;6.43;3.88;;;2.50;99.90;;;;;;4987233;28;20470;-89
2020/12/25 08:40:17;;;;;;;7.47;4.60;;;2.70;99.90;;;;;;4990331;28;20224;-90
2020/12/25 08:42:44;;;;;;;18.50;4.00;;;2.70;99.90;;;;;;4998997;28;20457;-89
2020/12/25 08:45:16;;;;;;;7.00;3.30;;;2.90;99.90;;;;;;5009143;28;20211;-88
2020/12/25 08:47:43;;;;;;;7.60;3.85;;;2.90;99.90;;;;;;5008852;28;20208;-89
2020/12/25 08:50:10;;;;;;;8.93;3.77;;;2.90;99.90;;;;;;4992215;28;20300;-89
2020/12/25 08:52:37;;;;;;;6.10;3.30;;;2.90;99.90;;;;;;4997575;28;20466;-91
2020/12/25 08:55:04;;;;;;;8.83;4.20;;;2.90;99.90;;;;;;4995437;28;20506;-90
2020/12/25 08:57:30;;;;;;;7.53;4.43;;;3.00;99.90;;;;;;5002374;28;20482;-90
2020/12/25 09:00:09;;;;;;;7.57;3.75;;;3.00;99.90;;;;;;5001727;28;20443;-90
2020/12/25 09:03:00;;;;;;;6.27;3.03;;;3.10;99.90;;;;;;4991701;28;20232;-90
2020/12/25 09:05:29;;;;;;;9.30;4.27;;;3.30;99.90;;;;;;4996662;28;20496;-89
2020/12/25 09:07:56;;;;;;;9.93;4.20;;;3.40;99.90;;;;;;4994987;28;20460;-86
2020/12/25 09:10:22;;;;;;;10.53;3.70;;;3.40;99.90;;;;;;5004801;28;20986;-92
2020/12/25 09:12:49;;;;;;;11.07;4.13;;;3.60;99.90;;;;;;4999802;28;20459;-90
2020/12/25 09:15:16;;;;;;;8.83;3.70;;;3.80;99.90;;;;;;5015409;28;20507;-91
2020/12/25 09:17:42;;;;;;;4.37;2.93;;;4.10;99.90;;;;;;5008380;28;20436;-93
2020/12/25 09:20:09;;;;;;;8.07;2.87;;;4.40;99.90;;;;;;5014305;28;20443;-91
2020/12/25 09:22:36;;;;;;;8.37;3.13;;;4.70;99.90;;;;;;5016623;28;20471;-92
2020/12/25 09:25:03;;;;;;;8.27;3.13;;;5.00;99.90;;;;;;5009972;28;20445;-88
2020/12/25 09:27:29;;;;;;;10.30;2.90;;;5.20;99.90;;;;;;5005956;28;20524;-91
2020/12/25 09:29:55;;;;;;;4.80;2.40;;;5.30;99.90;;;;;;5006581;28;20451;-89
2020/12/25 09:32:22;;;;;;;7.30;2.37;;;5.50;99.90;;;;;;5009626;28;20874;-91
2020/12/25 09:34:48;;;;;;;7.60;2.43;;;5.50;99.90;;;;;;5004442;28;20450;-89
2020/12/25 09:37:17;;;;;;;6.03;2.30;;;5.50;99.90;;;;;;5006942;28;20458;-89
2020/12/25 09:39:44;;;;;;;4.10;2.03;;;5.40;99.90;;;;;;5007315;28;20488;-89
2020/12/25 09:42:11;;;;;;;6.97;2.47;;;5.40;99.90;;;;;;5007219;28;20488;-90
2020/12/25 09:44:37;;;;;;;6.17;1.90;;;5.30;99.90;;;;;;5006544;28;20542;-90
2020/12/25 09:47:28;;;;;;;4.33;1.80;;;5.40;99.90;;;;;;5006255;28;20487;-89
2020/12/25 09:49:54;;;;;;;5.57;1.97;;;5.50;99.90;;;;;;5004157;28;20508;-89
2020/12/25 09:52:24;;;;;;;6.30;1.83;;;5.50;99.90;;;;;;5008342;28;20446;-89
2020/12/25 09:54:53;;;;;;;6.53;2.13;;;5.70;99.90;;;;;;5005467;28;20546;-88
2020/12/25 09:57:22;;;;;;;9.07;2.57;;;5.50;99.90;;;;;;5004721;28;20458;-88
2020/12/25 09:59:49;;;;;;;7.77;1.77;;;5.50;99.90;;;;;;5002212;28;20774;-89
2020/12/25 10:02:17;;;;;;;8.73;1.83;;;5.40;99.90;;;;;;5001537;28;20517;-88
2020/12/25 10:04:43;;;;;;;7.63;2.13;;;5.40;99.90;;;;;;4997126;28;20859;-88
2020/12/25 10:07:12;;;;;;;11.77;1.90;;;5.40;99.90;;;;;;5002651;28;20489;-87
2020/12/25 10:09:40;;;;;;;5.30;1.47;;;5.40;99.90;;;;;;5004093;28;20552;-88
2020/12/25 10:12:06;;;;;;;9.27;2.53;;;5.50;99.90;;;;;;5005687;28;20468;-89
2020/12/25 10:14:33;;;;;;;4.53;2.03;;;5.60;99.90;;;;;;5003202;28;20457;-89
2020/12/25 10:16:59;;;;;;;5.30;1.20;;;5.80;99.90;;;;;;5008017;28;20460;-90
2020/12/25 10:19:25;;;;;;;3.50;1.10;;;5.90;99.90;;;;;;4994437;28;20493;-89
2020/12/25 10:21:52;;;;;;;7.10;1.83;;;6.00;99.90;;;;;;4992066;28;20495;-89
2020/12/25 10:24:18;;;;;;;4.47;1.40;;;5.80;99.90;;;;;;5001453;28;20460;-88
2020/12/25 10:26:49;;;;;;;3.67;1.57;;;5.70;99.90;;;;;;4998120;28;20660;-89
2020/12/25 10:29:15;;;;;;;6.43;1.50;;;5.60;99.90;;;;;;5000755;28;20462;-89
2020/12/25 10:31:46;;;;;;;4.27;1.57;;;5.50;99.90;;;;;;4996146;28;20467;-93
2020/12/25 10:34:12;;;;;;;6.90;1.80;;;5.30;99.90;;;;;;5004145;28;20536;-89
2020/12/25 10:36:39;;;;;;;8.77;2.03;;;5.30;99.90;;;;;;4998062;28;20566;-90
2020/12/25 10:39:05;;;;;;;7.80;1.50;;;5.20;99.90;;;;;;5006003;28;20544;-89
2020/12/25 10:41:32;;;;;;;9.10;1.53;;;5.10;99.90;;;;;;4985604;28;20530;-89
2020/12/25 10:43:59;;;;;;;5.40;1.67;;;5.20;99.90;;;;;;5002151;28;20537;-89
2020/12/25 10:46:26;;;;;;;7.60;1.80;;;5.30;99.90;;;;;;4999047;28;20457;-90
2020/12/25 10:48:53;;;;;;;4.87;1.30;;;5.30;99.90;;;;;;5001717;28;20526;-89
2020/12/25 10:51:28;;;;;;;2.77;1.33;;;5.30;99.90;;;;;;5017186;28;20455;-89
2020/12/25 10:53:55;;;;;;;6.27;2.87;;;5.40;99.90;;;;;;5011873;28;20453;-88
2020/12/25 10:56:22;;;;;;;5.57;1.87;;;5.40;99.90;;;;;;5001655;28;20556;-89
2020/12/25 10:58:49;;;;;;;6.87;2.03;;;5.40;99.90;;;;;;5006214;28;20519;-89
2020/12/25 11:01:24;;;;;;;6.37;2.00;;;5.40;99.90;;;;;;5019021;28;20477;-89
2020/12/25 11:03:51;;;;;;;7.90;1.40;;;5.40;99.90;;;;;;5009634;28;20437;-88
2020/12/25 11:06:19;;;;;;;7.27;2.40;;;5.40;99.90;;;;;;5008698;28;20519;-89
2020/12/25 11:08:47;;;;;;;7.27;1.80;;;5.50;99.90;;;;;;4994267;28;20474;-89
2020/12/25 11:11:22;;;;;;;4.37;1.50;;;5.60;99.90;;;;;;4999609;28;20969;-89
2020/12/25 11:13:48;;;;;;;5.73;1.43;;;5.80;99.90;;;;;;4993145;28;20438;-89
2020/12/25 11:16:21;;;;;;;3.40;1.40;;;5.80;99.90;;;;;;4996257;28;20462;-91
2020/12/25 11:18:48;;;;;;;5.13;2.53;;;5.90;99.90;;;;;;4996747;28;20470;-89
2020/12/25 11:21:18;;;;;;;7.77;1.40;;;6.00;99.90;;;;;;5000501;28;20567;-89
2020/12/25 11:23:45;;;;;;;3.80;1.30;;;6.20;99.90;;;;;;4998035;28;20446;-87
2020/12/25 11:26:19;;;;;;;6.87;1.47;;;6.40;99.90;;;;;;4997787;28;20458;-88
2020/12/25 11:28:45;;;;;;;5.00;1.40;;;7.20;99.90;;;;;;5012986;28;20473;-88
2020/12/25 11:31:12;;;;;;;4.10;1.40;;;8.50;99.90;;;;;;5010665;28;20454;-89
2020/12/25 11:33:38;;;;;;;3.50;1.20;;;10.20;99.90;;;;;;5007633;28;20495;-89
2020/12/25 11:36:06;;;;;;;10.70;4.10;;;12.50;99.90;;;;;;5009076;28;20458;-91
2020/12/25 11:38:32;;;;;;;6.10;2.03;;;13.80;99.90;;;;;;5013994;28;20478;-90
2020/12/25 11:40:59;;;;;;;4.00;1.20;;;13.40;99.90;;;;;;5014884;28;20521;-90
2020/12/25 11:43:25;;;;;;;3.17;1.43;;;12.60;99.90;;;;;;5012752;28;20451;-89
2020/12/25 11:45:52;;;;;;;3.73;1.70;;;11.90;99.90;;;;;;5014075;28;20439;-89
2020/12/25 11:48:18;;;;;;;5.43;1.40;;;11.40;99.90;;;;;;5008221;28;20478;-92
2020/12/25 11:50:44;;;;;;;5.13;1.83;;;10.60;99.90;;;;;;5008575;28;20447;-91
2020/12/25 11:53:12;;;;;;;6.17;1.77;;;10.50;99.90;;;;;;5015687;28;20474;-90
2020/12/25 11:55:38;;;;;;;5.30;1.20;;;10.20;99.90;;;;;;5009727;28;20499;-88
2020/12/25 11:58:04;;;;;;;7.30;1.60;;;9.60;99.90;;;;;;5007478;28;20549;-86
2020/12/25 12:00:31;;;;;;;7.57;1.63;;;9.60;99.90;;;;;;5005683;28;20533;-88
2020/12/25 12:02:57;;;;;;;7.07;1.57;;;9.90;99.90;;;;;;5005410;28;20464;-89
2020/12/25 12:05:24;;;;;;;5.13;1.53;;;9.90;99.90;;;;;;5009119;28;20522;-92
2020/12/25 12:07:50;;;;;;;5.53;1.80;;;9.50;99.90;;;;;;5010884;28;20517;-88
2020/12/25 12:10:17;;;;;;;7.20;1.67;;;9.00;99.90;;;;;;5011077;28;20462;-88
2020/12/25 12:12:44;;;;;;;5.20;1.33;;;8.70;99.90;;;;;;5002225;28;20494;-87
2020/12/25 12:15:10;;;;;;;3.60;1.20;;;8.20;99.90;;;;;;5006601;28;20451;-86
2020/12/25 12:17:36;;;;;;;3.33;1.20;;;7.80;99.90;;;;;;5006891;28;20482;-85
2020/12/25 12:20:03;;;;;;;9.53;1.47;;;7.90;99.90;;;;;;5007925;28;20485;-88
2020/12/25 12:22:29;;;;;;;8.33;1.50;;;8.00;99.90;;;;;;5004941;28;20769;-89
2020/12/25 12:24:56;;;;;;;9.13;1.53;;;7.80;99.90;;;;;;5006939;28;20458;-89
2020/12/25 12:27:25;;;;;;;6.80;1.37;;;7.40;99.90;;;;;;5005840;28;20447;-88
2020/12/25 12:29:52;;;;;;;5.10;1.50;;;7.10;99.90;;;;;;5011142;28;20482;-88
2020/12/25 12:32:18;;;;;;;6.90;1.63;;;6.90;99.90;;;;;;5012168;28;20447;-91
2020/12/25 12:34:44;;;;;;;7.27;1.30;;;6.80;99.90;;;;;;5008820;28;20747;-89
2020/12/25 12:37:11;;;;;;;7.93;2.20;;;6.70;99.90;;;;;;5013608;28;20560;-90
2020/12/25 12:39:37;;;;;;;6.00;1.60;;;6.50;99.90;;;;;;5014757;28;20438;-88
2020/12/25 12:42:05;;;;;;;2.70;1.10;;;6.60;99.90;;;;;;5015996;28;20481;-88
2020/12/25 12:44:32;;;;;;;8.27;1.63;;;6.80;99.90;;;;;;5010172;28;20478;-90
2020/12/25 12:46:58;;;;;;;5.13;1.43;;;7.20;99.90;;;;;;5008719;28;20458;-89
2020/12/25 12:49:26;;;;;;;7.03;1.10;;;7.50;99.90;;;;;;5004066;28;20462;-91
2020/12/25 12:51:52;;;;;;;3.77;1.03;;;7.70;99.90;;;;;;4996548;28;20550;-89
2020/12/25 12:54:18;;;;;;;6.37;1.60;;;8.00;99.90;;;;;;5001196;28;20443;-89
2020/12/25 12:56:45;;;;;;;4.00;1.50;;;8.00;99.90;;;;;;5001741;28;20451;-88
2020/12/25 12:59:11;;;;;;;6.30;1.50;;;8.00;99.90;;;;;;4992092;28;20450;-88